sensor_id;sensor_type;location;lat;lon;timestamp;P1;durP1;ratioP1;P2;durP2;ratioP2
17199;SDS011;8716;52.268;20.968;2022-12-31T00:00:32;20.10;;;14.70;;
17199;SDS011;8716;52.268;20.968;2022-12-31T00:03:02;15.33;;;14.53;;
17199;SDS011;8716;52.268;20.968;2022-12-31T00:05:31;18.83;;;17.90;;
17199;SDS011;8716;52.268;20.968;2022-12-31T00:08:00;14.20;;;13.50;;
17199;SDS011;8716;52.268;20.968;2022-12-31T00:10:28;16.33;;;15.07;;
17199;SDS011;8716;52.268;20.968;2022-12-31T00:12:58;17.13;;;14.93;;
17199;SDS011;8716;52.268;20.968;2022-12-31T00:15:26;13.70;;;13.00;;
17199;SDS011;8716;52.268;20.968;2022-12-31T00:17:54;17.60;;;16.70;;
17199;SDS011;8716;52.268;20.968;2022-12-31T00:20:22;12.87;;;12.20;;
17199;SDS011;8716;52.268;20.968;2022-12-31T00:22:51;22.20;;;21.10;;
17199;SDS011;8716;52.268;20.968;2022-12-31T00:25:19;23.87;;;18.50;;
17199;SDS011;8716;52.268;20.968;2022-12-31T00:27:47;19.17;;;18.20;;
17199;SDS011;8716;52.268;20.968;2022-12-31T00:30:17;13.50;;;12.50;;
17199;SDS011;8716;52.268;20.968;2022-12-31T00:32:45;14.50;;;13.30;;
17199;SDS011;8716;52.268;20.968;2022-12-31T00:35:16;16.83;;;15.17;;
17199;SDS011;8716;52.268;20.968;2022-12-31T00:37:44;23.03;;;15.37;;
17199;SDS011;8716;52.268;20.968;2022-12-31T00:40:13;25.70;;;16.80;;
17199;SDS011;8716;52.268;20.968;2022-12-31T00:42:41;16.53;;;14.10;;
17199;SDS011;8716;52.268;20.968;2022-12-31T00:45:09;17.77;;;16.87;;
17199;SDS011;8716;52.268;20.968;2022-12-31T00:47:39;18.47;;;17.57;;
17199;SDS011;8716;52.268;20.968;2022-12-31T00:50:07;16.70;;;15.47;;
17199;SDS011;8716;52.268;20.968;2022-12-31T00:52:36;17.30;;;16.40;;
17199;SDS011;8716;52.268;20.968;2022-12-31T00:55:04;17.67;;;16.77;;
17199;SDS011;8716;52.268;20.968;2022-12-31T00:57:33;20.13;;;17.67;;
17199;SDS011;8716;52.268;20.968;2022-12-31T01:00:02;16.07;;;14.17;;
17199;SDS011;8716;52.268;20.968;2022-12-31T01:02:32;17.50;;;16.60;;
17199;SDS011;8716;52.268;20.968;2022-12-31T01:05:03;22.23;;;13.70;;
17199;SDS011;8716;52.268;20.968;2022-12-31T01:07:35;15.00;;;14.20;;
17199;SDS011;8716;52.268;20.968;2022-12-31T01:10:04;13.33;;;12.63;;
17199;SDS011;8716;52.268;20.968;2022-12-31T01:12:33;15.77;;;14.97;;
17199;SDS011;8716;52.268;20.968;2022-12-31T01:15:01;18.53;;;15.67;;
17199;SDS011;8716;52.268;20.968;2022-12-31T01:17:30;14.03;;;13.33;;
17199;SDS011;8716;52.268;20.968;2022-12-31T01:20:00;14.77;;;13.20;;
17199;SDS011;8716;52.268;20.968;2022-12-31T01:22:30;13.27;;;12.57;;
17199;SDS011;8716;52.268;20.968;2022-12-31T01:24:58;15.53;;;14.73;;
17199;SDS011;8716;52.268;20.968;2022-12-31T01:27:26;17.67;;;16.77;;
17199;SDS011;8716;52.268;20.968;2022-12-31T01:29:55;15.13;;;14.37;;
17199;SDS011;8716;52.268;20.968;2022-12-31T01:32:24;14.68;;;12.77;;
17199;SDS011;8716;52.268;20.968;2022-12-31T01:34:52;14.93;;;14.17;;
17199;SDS011;8716;52.268;20.968;2022-12-31T01:37:21;13.30;;;12.60;;
17199;SDS011;8716;52.268;20.968;2022-12-31T01:39:50;13.90;;;13.20;;
17199;SDS011;8716;52.268;20.968;2022-12-31T01:42:18;26.57;;;18.43;;
17199;SDS011;8716;52.268;20.968;2022-12-31T01:44:48;18.77;;;17.83;;
17199;SDS011;8716;52.268;20.968;2022-12-31T01:47:24;13.20;;;12.50;;
17199;SDS011;8716;52.268;20.968;2022-12-31T01:50:00;14.10;;;13.40;;
17199;SDS011;8716;52.268;20.968;2022-12-31T01:52:38;12.40;;;11.77;;
17199;SDS011;8716;52.268;20.968;2022-12-31T01:55:15;14.77;;;13.90;;
17199;SDS011;8716;52.268;20.968;2022-12-31T01:57:49;11.50;;;10.90;;
17199;SDS011;8716;52.268;20.968;2022-12-31T02:00:22;14.03;;;13.33;;
17199;SDS011;8716;52.268;20.968;2022-12-31T02:02:50;15.13;;;14.33;;
17199;SDS011;8716;52.268;20.968;2022-12-31T02:05:22;16.30;;;15.50;;
17199;SDS011;8716;52.268;20.968;2022-12-31T02:07:57;15.87;;;15.07;;
17199;SDS011;8716;52.268;20.968;2022-12-31T02:10:26;14.03;;;12.97;;
17199;SDS011;8716;52.268;20.968;2022-12-31T02:12:54;11.67;;;11.07;;
17199;SDS011;8716;52.268;20.968;2022-12-31T02:15:24;13.43;;;12.63;;
17199;SDS011;8716;52.268;20.968;2022-12-31T02:18:02;11.90;;;11.30;;
17199;SDS011;8716;52.268;20.968;2022-12-31T02:23:51;8.03;;;7.63;;
17199;SDS011;8716;52.268;20.968;2022-12-31T02:26:52;11.43;;;8.93;;
17199;SDS011;8716;52.268;20.968;2022-12-31T02:32:19;11.80;;;9.83;;
17199;SDS011;8716;52.268;20.968;2022-12-31T02:34:51;15.33;;;13.47;;
17199;SDS011;8716;52.268;20.968;2022-12-31T02:37:23;13.03;;;12.33;;
17199;SDS011;8716;52.268;20.968;2022-12-31T02:39:55;12.23;;;11.60;;
17199;SDS011;8716;52.268;20.968;2022-12-31T02:42:24;16.20;;;12.40;;
17199;SDS011;8716;52.268;20.968;2022-12-31T02:44:53;11.90;;;11.30;;
17199;SDS011;8716;52.268;20.968;2022-12-31T02:47:25;17.67;;;13.30;;
17199;SDS011;8716;52.268;20.968;2022-12-31T02:50:08;10.87;;;10.27;;
17199;SDS011;8716;52.268;20.968;2022-12-31T02:52:52;13.57;;;12.87;;
17199;SDS011;8716;52.268;20.968;2022-12-31T02:55:31;8.77;;;8.27;;
17199;SDS011;8716;52.268;20.968;2022-12-31T02:58:07;12.03;;;10.93;;
17199;SDS011;8716;52.268;20.968;2022-12-31T03:00:44;11.77;;;11.13;;
17199;SDS011;8716;52.268;20.968;2022-12-31T03:03:36;15.23;;;11.67;;
17199;SDS011;8716;52.268;20.968;2022-12-31T03:06:05;14.03;;;10.87;;
17199;SDS011;8716;52.268;20.968;2022-12-31T03:08:36;23.90;;;13.90;;
17199;SDS011;8716;52.268;20.968;2022-12-31T03:11:22;13.93;;;11.10;;
17199;SDS011;8716;52.268;20.968;2022-12-31T03:14:04;14.87;;;14.07;;
17199;SDS011;8716;52.268;20.968;2022-12-31T03:16:32;8.73;;;8.10;;
17199;SDS011;8716;52.268;20.968;2022-12-31T03:19:03;9.07;;;8.57;;
17199;SDS011;8716;52.268;20.968;2022-12-31T03:21:48;10.30;;;9.60;;
17199;SDS011;8716;52.268;20.968;2022-12-31T03:24:34;22.53;;;12.13;;
17199;SDS011;8716;52.268;20.968;2022-12-31T03:27:19;9.93;;;9.43;;
17199;SDS011;8716;52.268;20.968;2022-12-31T03:29:47;12.70;;;11.20;;
17199;SDS011;8716;52.268;20.968;2022-12-31T03:32:16;9.27;;;8.77;;
17199;SDS011;8716;52.268;20.968;2022-12-31T03:34:45;8.93;;;6.40;;
17199;SDS011;8716;52.268;20.968;2022-12-31T03:37:13;7.70;;;7.30;;
17199;SDS011;8716;52.268;20.968;2022-12-31T03:39:42;13.57;;;7.10;;
17199;SDS011;8716;52.268;20.968;2022-12-31T03:42:10;12.00;;;8.07;;
17199;SDS011;8716;52.268;20.968;2022-12-31T03:44:38;7.13;;;6.07;;
17199;SDS011;8716;52.268;20.968;2022-12-31T03:47:09;11.83;;;9.33;;
17199;SDS011;8716;52.268;20.968;2022-12-31T03:49:37;6.80;;;6.40;;
17199;SDS011;8716;52.268;20.968;2022-12-31T03:52:07;13.27;;;12.57;;
17199;SDS011;8716;52.268;20.968;2022-12-31T03:54:35;12.37;;;9.50;;
17199;SDS011;8716;52.268;20.968;2022-12-31T03:57:03;12.63;;;10.40;;
17199;SDS011;8716;52.268;20.968;2022-12-31T03:59:31;8.87;;;8.30;;
17199;SDS011;8716;52.268;20.968;2022-12-31T04:01:59;7.20;;;6.80;;
17199;SDS011;8716;52.268;20.968;2022-12-31T04:04:28;9.37;;;8.20;;
17199;SDS011;8716;52.268;20.968;2022-12-31T04:06:57;7.40;;;7.00;;
17199;SDS011;8716;52.268;20.968;2022-12-31T04:09:26;9.40;;;8.90;;
17199;SDS011;8716;52.268;20.968;2022-12-31T04:11:55;18.47;;;9.07;;
17199;SDS011;8716;52.268;20.968;2022-12-31T04:14:23;9.70;;;6.33;;
17199;SDS011;8716;52.268;20.968;2022-12-31T04:16:51;7.57;;;7.17;;
17199;SDS011;8716;52.268;20.968;2022-12-31T04:19:19;18.70;;;11.70;;
17199;SDS011;8716;52.268;20.968;2022-12-31T04:21:48;23.03;;;11.30;;
17199;SDS011;8716;52.268;20.968;2022-12-31T04:24:16;12.23;;;8.77;;
17199;SDS011;8716;52.268;20.968;2022-12-31T04:26:45;8.23;;;7.83;;
17199;SDS011;8716;52.268;20.968;2022-12-31T04:29:14;7.30;;;6.90;;
17199;SDS011;8716;52.268;20.968;2022-12-31T04:31:42;6.33;;;5.63;;
17199;SDS011;8716;52.268;20.968;2022-12-31T04:34:10;7.20;;;6.80;;
17199;SDS011;8716;52.268;20.968;2022-12-31T04:36:38;10.53;;;7.63;;
17199;SDS011;8716;52.268;20.968;2022-12-31T04:39:07;12.97;;;9.10;;
17199;SDS011;8716;52.268;20.968;2022-12-31T04:41:35;16.80;;;9.03;;
17199;SDS011;8716;52.268;20.968;2022-12-31T04:44:05;17.23;;;9.53;;
17199;SDS011;8716;52.268;20.968;2022-12-31T04:46:33;8.03;;;7.63;;
17199;SDS011;8716;52.268;20.968;2022-12-31T04:49:01;12.43;;;11.80;;
17199;SDS011;8716;52.268;20.968;2022-12-31T04:51:29;8.53;;;8.07;;
17199;SDS011;8716;52.268;20.968;2022-12-31T04:53:59;6.90;;;6.50;;
17199;SDS011;8716;52.268;20.968;2022-12-31T04:56:27;8.30;;;7.90;;
17199;SDS011;8716;52.268;20.968;2022-12-31T04:58:57;14.17;;;11.10;;
17199;SDS011;8716;52.268;20.968;2022-12-31T05:01:27;10.70;;;9.60;;
17199;SDS011;8716;52.268;20.968;2022-12-31T05:03:55;12.50;;;9.30;;
17199;SDS011;8716;52.268;20.968;2022-12-31T05:06:24;9.47;;;8.97;;
17199;SDS011;8716;52.268;20.968;2022-12-31T05:08:52;8.90;;;8.40;;
17199;SDS011;8716;52.268;20.968;2022-12-31T05:11:20;7.77;;;7.17;;
17199;SDS011;8716;52.268;20.968;2022-12-31T05:13:48;10.70;;;8.77;;
17199;SDS011;8716;52.268;20.968;2022-12-31T05:16:17;8.83;;;8.33;;
17199;SDS011;8716;52.268;20.968;2022-12-31T05:18:49;14.00;;;8.40;;
17199;SDS011;8716;52.268;20.968;2022-12-31T05:21:17;23.73;;;12.80;;
17199;SDS011;8716;52.268;20.968;2022-12-31T05:23:47;6.90;;;6.50;;
17199;SDS011;8716;52.268;20.968;2022-12-31T05:26:15;8.90;;;8.40;;
17199;SDS011;8716;52.268;20.968;2022-12-31T05:28:44;11.53;;;6.37;;
17199;SDS011;8716;52.268;20.968;2022-12-31T05:31:12;15.27;;;10.50;;
17199;SDS011;8716;52.268;20.968;2022-12-31T05:33:40;22.77;;;10.50;;
17199;SDS011;8716;52.268;20.968;2022-12-31T05:36:12;12.00;;;9.97;;
17199;SDS011;8716;52.268;20.968;2022-12-31T05:38:41;17.33;;;8.77;;
17199;SDS011;8716;52.268;20.968;2022-12-31T05:41:09;9.67;;;9.17;;
17199;SDS011;8716;52.268;20.968;2022-12-31T05:43:37;10.90;;;10.30;;
17199;SDS011;8716;52.268;20.968;2022-12-31T05:46:06;8.20;;;7.80;;
17199;SDS011;8716;52.268;20.968;2022-12-31T05:48:34;8.60;;;7.60;;
17199;SDS011;8716;52.268;20.968;2022-12-31T05:51:02;7.10;;;6.70;;
17199;SDS011;8716;52.268;20.968;2022-12-31T05:53:32;9.03;;;8.27;;
17199;SDS011;8716;52.268;20.968;2022-12-31T05:56:00;8.63;;;8.13;;
17199;SDS011;8716;52.268;20.968;2022-12-31T05:58:29;7.63;;;7.23;;
17199;SDS011;8716;52.268;20.968;2022-12-31T06:00:57;9.70;;;9.20;;
17199;SDS011;8716;52.268;20.968;2022-12-31T06:03:25;12.87;;;11.37;;
17199;SDS011;8716;52.268;20.968;2022-12-31T06:05:53;6.90;;;6.50;;
17199;SDS011;8716;52.268;20.968;2022-12-31T06:08:24;9.27;;;8.80;;
17199;SDS011;8716;52.268;20.968;2022-12-31T06:10:53;8.07;;;7.67;;
17199;SDS011;8716;52.268;20.968;2022-12-31T06:13:22;6.63;;;6.23;;
17199;SDS011;8716;52.268;20.968;2022-12-31T06:15:52;8.60;;;6.07;;
17199;SDS011;8716;52.268;20.968;2022-12-31T06:18:20;7.23;;;6.83;;
17199;SDS011;8716;52.268;20.968;2022-12-31T06:20:48;10.00;;;9.50;;
17199;SDS011;8716;52.268;20.968;2022-12-31T06:23:17;7.80;;;7.40;;
17199;SDS011;8716;52.268;20.968;2022-12-31T06:25:45;8.47;;;8.00;;
17199;SDS011;8716;52.268;20.968;2022-12-31T06:28:14;8.50;;;6.77;;
17199;SDS011;8716;52.268;20.968;2022-12-31T06:30:46;7.67;;;7.10;;
17199;SDS011;8716;52.268;20.968;2022-12-31T06:33:17;7.10;;;6.70;;
17199;SDS011;8716;52.268;20.968;2022-12-31T06:35:45;5.27;;;4.73;;
17199;SDS011;8716;52.268;20.968;2022-12-31T06:38:13;8.90;;;8.40;;
17199;SDS011;8716;52.268;20.968;2022-12-31T06:40:41;4.50;;;3.87;;
17199;SDS011;8716;52.268;20.968;2022-12-31T06:43:09;14.03;;;5.57;;
17199;SDS011;8716;52.268;20.968;2022-12-31T06:45:40;5.87;;;5.23;;
17199;SDS011;8716;52.268;20.968;2022-12-31T06:48:08;6.27;;;5.93;;
17199;SDS011;8716;52.268;20.968;2022-12-31T06:50:37;13.93;;;10.13;;
17199;SDS011;8716;52.268;20.968;2022-12-31T06:53:06;8.37;;;5.83;;
17199;SDS011;8716;52.268;20.968;2022-12-31T06:55:34;11.97;;;8.77;;
17199;SDS011;8716;52.268;20.968;2022-12-31T06:58:03;5.93;;;5.63;;
17199;SDS011;8716;52.268;20.968;2022-12-31T07:00:32;5.30;;;5.00;;
17199;SDS011;8716;52.268;20.968;2022-12-31T07:03:06;7.83;;;7.43;;
17199;SDS011;8716;52.268;20.968;2022-12-31T07:05:45;10.23;;;7.03;;
17199;SDS011;8716;52.268;20.968;2022-12-31T07:08:20;8.73;;;8.23;;
17199;SDS011;8716;52.268;20.968;2022-12-31T07:10:58;7.10;;;6.70;;
17199;SDS011;8716;52.268;20.968;2022-12-31T07:16:34;6.30;;;5.37;;
17199;SDS011;8716;52.268;20.968;2022-12-31T07:19:21;6.57;;;6.17;;
17199;SDS011;8716;52.268;20.968;2022-12-31T07:21:54;5.57;;;5.27;;
17199;SDS011;8716;52.268;20.968;2022-12-31T07:24:25;7.10;;;6.43;;
17199;SDS011;8716;52.268;20.968;2022-12-31T07:27:04;20.77;;;9.33;;
17199;SDS011;8716;52.268;20.968;2022-12-31T07:29:56;5.20;;;4.90;;
17199;SDS011;8716;52.268;20.968;2022-12-31T07:32:33;5.70;;;5.40;;
17199;SDS011;8716;52.268;20.968;2022-12-31T07:35:13;4.60;;;4.30;;
17199;SDS011;8716;52.268;20.968;2022-12-31T07:37:50;5.60;;;4.13;;
17199;SDS011;8716;52.268;20.968;2022-12-31T07:40:28;4.40;;;4.00;;
17199;SDS011;8716;52.268;20.968;2022-12-31T07:43:06;5.57;;;5.27;;
17199;SDS011;8716;52.268;20.968;2022-12-31T07:45:44;5.70;;;5.40;;
17199;SDS011;8716;52.268;20.968;2022-12-31T07:48:19;4.33;;;4.03;;
17199;SDS011;8716;52.268;20.968;2022-12-31T07:50:52;4.67;;;4.10;;
17199;SDS011;8716;52.268;20.968;2022-12-31T07:53:22;11.90;;;8.10;;
17199;SDS011;8716;52.268;20.968;2022-12-31T07:55:52;5.40;;;5.10;;
17199;SDS011;8716;52.268;20.968;2022-12-31T07:58:24;5.07;;;4.60;;
17199;SDS011;8716;52.268;20.968;2022-12-31T08:00:58;4.30;;;4.00;;
17199;SDS011;8716;52.268;20.968;2022-12-31T08:03:35;4.17;;;3.93;;
17199;SDS011;8716;52.268;20.968;2022-12-31T08:06:16;4.73;;;3.07;;
17199;SDS011;8716;52.268;20.968;2022-12-31T08:08:57;4.10;;;3.90;;
17199;SDS011;8716;52.268;20.968;2022-12-31T08:11:31;4.37;;;4.07;;
17199;SDS011;8716;52.268;20.968;2022-12-31T08:14:06;7.00;;;4.77;;
17199;SDS011;8716;52.268;20.968;2022-12-31T08:16:36;5.73;;;4.23;;
17199;SDS011;8716;52.268;20.968;2022-12-31T08:19:05;6.13;;;5.83;;
17199;SDS011;8716;52.268;20.968;2022-12-31T08:21:42;6.53;;;6.13;;
17199;SDS011;8716;52.268;20.968;2022-12-31T08:24:21;5.73;;;5.43;;
17199;SDS011;8716;52.268;20.968;2022-12-31T08:26:58;4.97;;;4.67;;
17199;SDS011;8716;52.268;20.968;2022-12-31T08:29:35;4.73;;;4.43;;
17199;SDS011;8716;52.268;20.968;2022-12-31T08:32:12;5.30;;;4.37;;
17199;SDS011;8716;52.268;20.968;2022-12-31T08:34:49;4.73;;;4.43;;
17199;SDS011;8716;52.268;20.968;2022-12-31T08:37:27;6.13;;;4.60;;
17199;SDS011;8716;52.268;20.968;2022-12-31T08:40:06;4.67;;;4.37;;
17199;SDS011;8716;52.268;20.968;2022-12-31T08:42:43;5.03;;;3.27;;
17199;SDS011;8716;52.268;20.968;2022-12-31T08:45:23;5.17;;;4.87;;
17199;SDS011;8716;52.268;20.968;2022-12-31T08:47:57;3.87;;;3.67;;
17199;SDS011;8716;52.268;20.968;2022-12-31T08:50:30;4.33;;;4.10;;
17199;SDS011;8716;52.268;20.968;2022-12-31T08:53:01;5.80;;;5.50;;
17199;SDS011;8716;52.268;20.968;2022-12-31T08:55:29;3.00;;;2.80;;
17199;SDS011;8716;52.268;20.968;2022-12-31T08:58:03;4.90;;;4.60;;
17199;SDS011;8716;52.268;20.968;2022-12-31T09:00:36;6.33;;;4.03;;
17199;SDS011;8716;52.268;20.968;2022-12-31T09:03:22;6.20;;;5.90;;
17199;SDS011;8716;52.268;20.968;2022-12-31T09:06:22;3.10;;;2.90;;
17199;SDS011;8716;52.268;20.968;2022-12-31T09:08:56;4.00;;;3.33;;
17199;SDS011;8716;52.268;20.968;2022-12-31T09:11:33;6.07;;;3.80;;
17199;SDS011;8716;52.268;20.968;2022-12-31T09:14:14;8.80;;;4.07;;
17199;SDS011;8716;52.268;20.968;2022-12-31T09:16:51;3.67;;;3.47;;
17199;SDS011;8716;52.268;20.968;2022-12-31T09:19:26;3.23;;;3.03;;
17199;SDS011;8716;52.268;20.968;2022-12-31T09:21:55;3.77;;;3.57;;
17199;SDS011;8716;52.268;20.968;2022-12-31T09:24:25;5.57;;;5.27;;
17199;SDS011;8716;52.268;20.968;2022-12-31T09:26:56;3.67;;;3.47;;
17199;SDS011;8716;52.268;20.968;2022-12-31T09:29:36;5.77;;;4.93;;
17199;SDS011;8716;52.268;20.968;2022-12-31T09:32:17;3.07;;;2.70;;
17199;SDS011;8716;52.268;20.968;2022-12-31T09:34:52;4.40;;;4.10;;
17199;SDS011;8716;52.268;20.968;2022-12-31T09:37:28;5.77;;;5.47;;
17199;SDS011;8716;52.268;20.968;2022-12-31T09:40:21;7.00;;;6.60;;
17199;SDS011;8716;52.268;20.968;2022-12-31T09:46:42;4.47;;;4.17;;
17199;SDS011;8716;52.268;20.968;2022-12-31T09:49:41;5.27;;;4.33;;
17199;SDS011;8716;52.268;20.968;2022-12-31T09:52:28;4.40;;;4.10;;
17199;SDS011;8716;52.268;20.968;2022-12-31T09:55:12;4.27;;;4.00;;
17199;SDS011;8716;52.268;20.968;2022-12-31T09:58:00;3.80;;;3.37;;
17199;SDS011;8716;52.268;20.968;2022-12-31T10:00:40;8.33;;;4.47;;
17199;SDS011;8716;52.268;20.968;2022-12-31T10:03:19;3.60;;;3.43;;
17199;SDS011;8716;52.268;20.968;2022-12-31T10:06:02;13.23;;;4.67;;
17199;SDS011;8716;52.268;20.968;2022-12-31T10:08:56;4.23;;;3.90;;
17199;SDS011;8716;52.268;20.968;2022-12-31T10:11:55;6.23;;;5.43;;
17199;SDS011;8716;52.268;20.968;2022-12-31T10:14:41;3.70;;;3.23;;
17199;SDS011;8716;52.268;20.968;2022-12-31T10:17:26;4.10;;;3.90;;
17199;SDS011;8716;52.268;20.968;2022-12-31T10:20:15;3.80;;;3.60;;
17199;SDS011;8716;52.268;20.968;2022-12-31T10:22:59;11.90;;;3.20;;
17199;SDS011;8716;52.268;20.968;2022-12-31T10:25:44;6.57;;;6.17;;
17199;SDS011;8716;52.268;20.968;2022-12-31T10:28:38;8.17;;;3.60;;
17199;SDS011;8716;52.268;20.968;2022-12-31T10:31:15;6.83;;;4.67;;
17199;SDS011;8716;52.268;20.968;2022-12-31T10:34:04;6.03;;;5.73;;
17199;SDS011;8716;52.268;20.968;2022-12-31T10:36:46;5.43;;;4.20;;
17199;SDS011;8716;52.268;20.968;2022-12-31T10:39:33;5.33;;;5.03;;
17199;SDS011;8716;52.268;20.968;2022-12-31T10:42:24;5.37;;;4.23;;
17199;SDS011;8716;52.268;20.968;2022-12-31T10:48:38;4.37;;;4.10;;
17199;SDS011;8716;52.268;20.968;2022-12-31T11:00:50;4.60;;;4.30;;
17199;SDS011;8716;52.268;20.968;2022-12-31T11:03:35;6.10;;;5.47;;
17199;SDS011;8716;52.268;20.968;2022-12-31T11:06:33;5.53;;;3.37;;
17199;SDS011;8716;52.268;20.968;2022-12-31T11:09:33;4.87;;;3.93;;
17199;SDS011;8716;52.268;20.968;2022-12-31T11:12:36;5.53;;;5.23;;
17199;SDS011;8716;52.268;20.968;2022-12-31T11:15:25;7.33;;;3.40;;
17199;SDS011;8716;52.268;20.968;2022-12-31T11:18:06;3.60;;;3.40;;
17199;SDS011;8716;52.268;20.968;2022-12-31T11:20:54;8.00;;;3.43;;
17199;SDS011;8716;52.268;20.968;2022-12-31T11:23:44;4.63;;;4.33;;
17199;SDS011;8716;52.268;20.968;2022-12-31T11:26:25;4.37;;;4.07;;
17199;SDS011;8716;52.268;20.968;2022-12-31T11:29:08;4.77;;;4.53;;
17199;SDS011;8716;52.268;20.968;2022-12-31T11:32:01;4.13;;;3.90;;
17199;SDS011;8716;52.268;20.968;2022-12-31T11:34:47;4.00;;;3.80;;
17199;SDS011;8716;52.268;20.968;2022-12-31T11:37:32;4.97;;;4.20;;
17199;SDS011;8716;52.268;20.968;2022-12-31T11:43:09;4.50;;;4.20;;
17199;SDS011;8716;52.268;20.968;2022-12-31T11:48:50;4.13;;;3.73;;
17199;SDS011;8716;52.268;20.968;2022-12-31T11:51:37;4.37;;;4.07;;
17199;SDS011;8716;52.268;20.968;2022-12-31T11:57:17;2.80;;;2.60;;
17199;SDS011;8716;52.268;20.968;2022-12-31T11:59:53;4.47;;;4.17;;
17199;SDS011;8716;52.268;20.968;2022-12-31T12:02:24;2.90;;;2.70;;
17199;SDS011;8716;52.268;20.968;2022-12-31T12:04:55;3.23;;;3.03;;
17199;SDS011;8716;52.268;20.968;2022-12-31T12:07:37;4.90;;;3.97;;
17199;SDS011;8716;52.268;20.968;2022-12-31T12:10:16;3.03;;;2.83;;
17199;SDS011;8716;52.268;20.968;2022-12-31T12:12:49;4.30;;;3.97;;
17199;SDS011;8716;52.268;20.968;2022-12-31T12:15:20;4.50;;;4.20;;
17199;SDS011;8716;52.268;20.968;2022-12-31T12:17:51;5.70;;;4.13;;
17199;SDS011;8716;52.268;20.968;2022-12-31T12:20:23;5.10;;;4.37;;
17199;SDS011;8716;52.268;20.968;2022-12-31T12:22:57;3.70;;;3.50;;
17199;SDS011;8716;52.268;20.968;2022-12-31T12:25:36;3.00;;;2.80;;
17199;SDS011;8716;52.268;20.968;2022-12-31T12:28:17;5.00;;;3.10;;
17199;SDS011;8716;52.268;20.968;2022-12-31T12:30:51;4.83;;;3.60;;
17199;SDS011;8716;52.268;20.968;2022-12-31T12:33:24;3.83;;;3.63;;
17199;SDS011;8716;52.268;20.968;2022-12-31T12:36:04;4.87;;;4.43;;
17199;SDS011;8716;52.268;20.968;2022-12-31T12:38:35;4.30;;;4.00;;
17199;SDS011;8716;52.268;20.968;2022-12-31T12:41:09;3.60;;;2.50;;
17199;SDS011;8716;52.268;20.968;2022-12-31T12:43:44;3.17;;;2.97;;
17199;SDS011;8716;52.268;20.968;2022-12-31T12:46:17;3.40;;;3.20;;
17199;SDS011;8716;52.268;20.968;2022-12-31T12:48:52;5.83;;;4.50;;
17199;SDS011;8716;52.268;20.968;2022-12-31T12:51:26;3.60;;;3.40;;
17199;SDS011;8716;52.268;20.968;2022-12-31T12:54:11;9.17;;;5.63;;
17199;SDS011;8716;52.268;20.968;2022-12-31T12:56:54;3.37;;;3.17;;
17199;SDS011;8716;52.268;20.968;2022-12-31T12:59:36;3.77;;;3.60;;
17199;SDS011;8716;52.268;20.968;2022-12-31T13:02:27;5.03;;;4.57;;
17199;SDS011;8716;52.268;20.968;2022-12-31T13:05:07;2.97;;;2.77;;
17199;SDS011;8716;52.268;20.968;2022-12-31T13:07:52;4.23;;;3.97;;
17199;SDS011;8716;52.268;20.968;2022-12-31T13:10:35;3.27;;;3.07;;
17199;SDS011;8716;52.268;20.968;2022-12-31T13:13:20;2.83;;;2.63;;
17199;SDS011;8716;52.268;20.968;2022-12-31T13:15:56;9.80;;;4.37;;
17199;SDS011;8716;52.268;20.968;2022-12-31T13:18:34;3.10;;;2.90;;
17199;SDS011;8716;52.268;20.968;2022-12-31T13:21:13;3.60;;;3.40;;
17199;SDS011;8716;52.268;20.968;2022-12-31T13:23:48;3.93;;;3.77;;
17199;SDS011;8716;52.268;20.968;2022-12-31T13:26:23;6.53;;;4.40;;
17199;SDS011;8716;52.268;20.968;2022-12-31T13:28:58;4.13;;;3.90;;
17199;SDS011;8716;52.268;20.968;2022-12-31T13:31:30;4.07;;;3.00;;
17199;SDS011;8716;52.268;20.968;2022-12-31T13:34:03;3.13;;;2.93;;
17199;SDS011;8716;52.268;20.968;2022-12-31T13:36:34;6.37;;;3.80;;
17199;SDS011;8716;52.268;20.968;2022-12-31T13:39:09;2.67;;;2.47;;
17199;SDS011;8716;52.268;20.968;2022-12-31T13:41:43;4.40;;;4.10;;
17199;SDS011;8716;52.268;20.968;2022-12-31T13:44:22;4.10;;;3.90;;
17199;SDS011;8716;52.268;20.968;2022-12-31T13:46:57;5.70;;;3.80;;
17199;SDS011;8716;52.268;20.968;2022-12-31T13:49:30;3.70;;;3.50;;
17199;SDS011;8716;52.268;20.968;2022-12-31T13:52:09;4.20;;;3.20;;
17199;SDS011;8716;52.268;20.968;2022-12-31T13:54:50;4.90;;;4.60;;
17199;SDS011;8716;52.268;20.968;2022-12-31T13:57:25;4.33;;;3.63;;
17199;SDS011;8716;52.268;20.968;2022-12-31T14:00:03;4.50;;;4.20;;
17199;SDS011;8716;52.268;20.968;2022-12-31T14:02:39;4.50;;;4.20;;
17199;SDS011;8716;52.268;20.968;2022-12-31T14:05:13;6.40;;;6.03;;
17199;SDS011;8716;52.268;20.968;2022-12-31T14:07:47;9.23;;;4.20;;
17199;SDS011;8716;52.268;20.968;2022-12-31T14:10:19;6.17;;;5.87;;
17199;SDS011;8716;52.268;20.968;2022-12-31T14:12:58;4.33;;;4.03;;
17199;SDS011;8716;52.268;20.968;2022-12-31T14:15:35;2.77;;;2.57;;
17199;SDS011;8716;52.268;20.968;2022-12-31T14:18:10;3.93;;;3.73;;
17199;SDS011;8716;52.268;20.968;2022-12-31T14:20:47;3.20;;;2.97;;
17199;SDS011;8716;52.268;20.968;2022-12-31T14:23:36;10.23;;;4.53;;
17199;SDS011;8716;52.268;20.968;2022-12-31T14:26:11;3.53;;;3.33;;
17199;SDS011;8716;52.268;20.968;2022-12-31T14:28:52;6.47;;;3.93;;
17199;SDS011;8716;52.268;20.968;2022-12-31T14:31:30;2.93;;;2.73;;
17199;SDS011;8716;52.268;20.968;2022-12-31T14:34:13;4.43;;;3.53;;
17199;SDS011;8716;52.268;20.968;2022-12-31T14:36:50;4.17;;;3.93;;
17199;SDS011;8716;52.268;20.968;2022-12-31T14:39:31;2.83;;;2.63;;
17199;SDS011;8716;52.268;20.968;2022-12-31T14:42:11;5.63;;;3.60;;
17199;SDS011;8716;52.268;20.968;2022-12-31T14:44:57;8.77;;;4.37;;
17199;SDS011;8716;52.268;20.968;2022-12-31T14:47:35;4.47;;;4.17;;
17199;SDS011;8716;52.268;20.968;2022-12-31T14:50:14;5.13;;;4.83;;
17199;SDS011;8716;52.268;20.968;2022-12-31T14:52:48;3.30;;;3.10;;
17199;SDS011;8716;52.268;20.968;2022-12-31T14:55:20;3.47;;;3.27;;
17199;SDS011;8716;52.268;20.968;2022-12-31T14:57:50;7.00;;;4.03;;
17199;SDS011;8716;52.268;20.968;2022-12-31T15:00:49;2.90;;;2.70;;
17199;SDS011;8716;52.268;20.968;2022-12-31T15:03:25;4.23;;;3.70;;
17199;SDS011;8716;52.268;20.968;2022-12-31T15:06:25;5.07;;;3.33;;
17199;SDS011;8716;52.268;20.968;2022-12-31T15:09:07;4.13;;;3.90;;
17199;SDS011;8716;52.268;20.968;2022-12-31T15:11:59;4.60;;;4.30;;
17199;SDS011;8716;52.268;20.968;2022-12-31T15:14:59;4.53;;;3.80;;
17199;SDS011;8716;52.268;20.968;2022-12-31T15:17:52;4.10;;;3.87;;
17199;SDS011;8716;52.268;20.968;2022-12-31T15:23:50;4.27;;;4.00;;
17199;SDS011;8716;52.268;20.968;2022-12-31T15:26:20;3.27;;;3.07;;
17199;SDS011;8716;52.268;20.968;2022-12-31T15:28:55;4.00;;;3.80;;
17199;SDS011;8716;52.268;20.968;2022-12-31T15:31:28;3.83;;;3.63;;
17199;SDS011;8716;52.268;20.968;2022-12-31T15:34:01;3.63;;;3.27;;
17199;SDS011;8716;52.268;20.968;2022-12-31T15:36:32;3.53;;;3.33;;
17199;SDS011;8716;52.268;20.968;2022-12-31T15:39:17;6.47;;;4.57;;
17199;SDS011;8716;52.268;20.968;2022-12-31T15:41:52;5.07;;;4.77;;
17199;SDS011;8716;52.268;20.968;2022-12-31T15:44:44;3.87;;;3.67;;
17199;SDS011;8716;52.268;20.968;2022-12-31T15:47:16;4.30;;;4.00;;
17199;SDS011;8716;52.268;20.968;2022-12-31T15:49:54;4.73;;;3.87;;
17199;SDS011;8716;52.268;20.968;2022-12-31T15:52:28;13.23;;;4.70;;
17199;SDS011;8716;52.268;20.968;2022-12-31T15:55:04;3.97;;;3.77;;
17199;SDS011;8716;52.268;20.968;2022-12-31T15:57:35;3.63;;;3.43;;
17199;SDS011;8716;52.268;20.968;2022-12-31T16:00:07;6.63;;;6.23;;
17199;SDS011;8716;52.268;20.968;2022-12-31T16:02:42;7.80;;;4.43;;
17199;SDS011;8716;52.268;20.968;2022-12-31T16:05:16;4.93;;;4.63;;